Time;durP1;ratioP1;P1;durP2;ratioP2;P2;SDS_P1;SDS_P2;PMS_P1;PMS_P2;Temp;Humidity;BMP_temperature;BMP_pressure;BME280_temperature;BME280_humidity;BME280_pressure;Samples;Min_cycle;Max_cycle;Signal;HPM_P1;HPM_P2
2023/03/22 00:01:29;;;;;;;113.90;105.73;;;9.00;92.20;;;;;;4978144;28;20212;-89
2023/03/22 00:03:56;;;;;;;107.73;100.33;;;9.00;92.20;;;;;;4977359;28;20587;-89
2023/03/22 00:06:21;;;;;;;112.60;104.87;;;9.00;92.20;;;;;;4978373;28;20264;-89
2023/03/22 00:08:49;;;;;;;120.23;111.53;;;9.00;92.20;;;;;;4977516;28;20269;-89
2023/03/22 00:11:16;;;;;;;115.77;107.90;;;8.90;92.30;;;;;;4977599;28;20170;-88
2023/03/22 00:13:42;;;;;;;115.43;107.33;;;9.00;92.30;;;;;;4977480;28;20174;-89
2023/03/22 00:16:09;;;;;;;115.93;107.83;;;9.00;92.30;;;;;;4977477;28;20560;-89
2023/03/22 00:18:35;;;;;;;116.37;107.93;;;9.00;92.40;;;;;;4978212;28;20182;-89
2023/03/22 00:21:00;;;;;;;116.53;108.43;;;9.00;92.30;;;;;;4995150;28;20204;-91
2023/03/22 00:23:35;;;;;;;120.77;112.07;;;9.00;92.40;;;;;;5111651;27;20598;-92
2023/03/22 00:26:00;;;;;;;111.97;103.90;;;9.00;92.50;;;;;;5109872;28;20174;-91
2023/03/22 00:28:26;;;;;;;114.93;106.63;;;9.00;92.20;;;;;;5111074;28;20173;-91
2023/03/22 00:30:57;;;;;;;111.03;103.20;;;9.00;92.10;;;;;;5111048;28;20257;-91
2023/03/22 00:33:23;;;;;;;111.67;103.73;;;8.90;92.30;;;;;;5111347;28;20211;-91
2023/03/22 00:36:09;;;;;;;114.57;106.70;;;8.80;92.30;;;;;;5109633;28;20202;-92
2023/03/22 00:38:36;;;;;;;115.83;108.03;;;8.80;92.50;;;;;;5109788;28;20167;-92
2023/03/22 00:41:16;;;;;;;120.60;112.10;;;8.80;92.40;;;;;;5109631;28;20672;-92
2023/03/22 00:43:41;;;;;;;121.53;112.90;;;8.80;92.50;;;;;;5109515;28;20171;-91
2023/03/22 00:46:08;;;;;;;120.73;111.83;;;8.80;92.50;;;;;;5111095;28;20193;-92
2023/03/22 00:48:34;;;;;;;119.70;111.13;;;8.80;92.60;;;;;;5109684;28;20182;-90
2023/03/22 00:51:00;;;;;;;113.60;105.80;;;8.80;92.70;;;;;;5109403;28;20170;-90
2023/03/22 00:53:27;;;;;;;118.33;110.03;;;8.80;92.60;;;;;;5109350;28;20640;-90
2023/03/22 00:55:54;;;;;;;117.20;109.00;;;8.90;92.50;;;;;;5110603;28;20174;-90
2023/03/22 00:58:19;;;;;;;117.57;109.13;;;9.00;92.50;;;;;;5109259;28;20174;-90
2023/03/22 01:00:45;;;;;;;108.07;100.73;;;9.00;92.50;;;;;;5109238;28;20209;-90
2023/03/22 01:03:13;;;;;;;118.13;109.90;;;9.00;92.50;;;;;;5109152;28;20197;-89
2023/03/22 01:05:38;;;;;;;118.10;109.50;;;9.10;92.50;;;;;;5109027;28;20215;-89
2023/03/22 01:08:07;;;;;;;116.30;108.30;;;9.10;92.40;;;;;;5109124;28;20170;-90
2023/03/22 01:10:37;;;;;;;117.13;108.67;;;9.20;92.50;;;;;;5110459;28;20166;-90
2023/03/22 01:13:04;;;;;;;116.13;107.80;;;9.20;92.30;;;;;;5109080;28;20175;-89
2023/03/22 01:15:30;;;;;;;112.87;104.87;;;9.20;92.30;;;;;;5108920;28;20579;-90
2023/03/22 01:17:55;;;;;;;111.10;102.73;;;9.20;92.20;;;;;;5109034;28;20185;-90
2023/03/22 01:20:21;;;;;;;117.03;108.97;;;9.20;92.20;;;;;;5109122;28;20200;-90
2023/03/22 01:22:46;;;;;;;116.20;108.00;;;9.20;92.20;;;;;;5110139;28;20210;-90
2023/03/22 01:25:12;;;;;;;114.83;106.83;;;9.30;92.20;;;;;;5109873;28;20198;-90
2023/03/22 01:27:38;;;;;;;116.40;108.10;;;9.30;92.20;;;;;;5108680;28;20166;-90
2023/03/22 01:30:05;;;;;;;117.50;109.23;;;9.30;92.20;;;;;;5108525;28;20546;-90
2023/03/22 01:32:31;;;;;;;112.67;104.93;;;9.30;92.20;;;;;;5108615;28;20174;-89
2023/03/22 01:34:56;;;;;;;114.17;106.07;;;9.40;92.10;;;;;;5096129;28;20281;-89
2023/03/22 01:37:24;;;;;;;108.47;100.63;;;9.40;92.00;;;;;;5096578;28;20186;-90
2023/03/22 01:39:49;;;;;;;105.97;98.47;;;9.40;91.90;;;;;;5095049;28;20179;-89
2023/03/22 01:42:17;;;;;;;109.27;101.70;;;9.40;91.90;;;;;;5094805;28;20300;-90
2023/03/22 01:45:03;;;;;;;113.10;104.87;;;9.50;91.80;;;;;;5095110;28;20195;-90
2023/03/22 01:47:30;;;;;;;114.03;105.77;;;9.50;91.90;;;;;;5095114;28;20175;-89
2023/03/22 01:49:55;;;;;;;118.83;110.40;;;9.40;91.80;;;;;;5096408;28;20186;-90
2023/03/22 01:52:21;;;;;;;123.53;114.57;;;9.40;91.90;;;;;;5094711;28;20182;-90
2023/03/22 01:54:51;;;;;;;118.97;110.83;;;9.40;92.00;;;;;;5094572;28;20194;-90
2023/03/22 01:57:17;;;;;;;123.40;114.60;;;9.40;92.10;;;;;;5094558;28;20656;-90
2023/03/22 01:59:44;;;;;;;125.47;116.37;;;9.30;92.00;;;;;;5095801;28;20178;-91
2023/03/22 02:02:13;;;;;;;123.10;114.17;;;9.40;92.00;;;;;;5094561;28;20791;-91
2023/03/22 02:04:39;;;;;;;126.10;117.13;;;9.30;92.00;;;;;;5094902;28;20550;-90
2023/03/22 02:07:08;;;;;;;122.53;113.90;;;9.30;92.00;;;;;;5094399;28;20232;-90
2023/03/22 02:09:38;;;;;;;124.33;115.50;;;9.30;92.00;;;;;;5094398;28;20175;-91
2023/03/22 02:12:36;;;;;;;121.90;112.93;;;9.30;92.10;;;;;;5094703;28;20236;-90
2023/03/22 02:15:31;;;;;;;125.37;116.93;;;9.30;92.00;;;;;;5086085;28;20281;-90
2023/03/22 02:18:20;;;;;;;122.23;112.90;;;9.30;92.00;;;;;;5078413;28;20288;-90
2023/03/22 02:21:18;;;;;;;124.97;115.80;;;9.20;92.00;;;;;;5094191;28;20256;-90
2023/03/22 02:24:14;;;;;;;126.13;116.50;;;9.20;92.00;;;;;;5094030;28;20554;-90
2023/03/22 02:27:03;;;;;;;131.37;121.97;;;9.20;92.10;;;;;;5094151;28;20159;-90
2023/03/22 02:29:40;;;;;;;129.10;120.23;;;9.10;92.20;;;;;;5094002;28;20163;-90
2023/03/22 02:32:26;;;;;;;134.80;125.27;;;9.10;92.20;;;;;;5094463;28;20177;-90
2023/03/22 02:35:16;;;;;;;132.43;123.07;;;9.00;92.30;;;;;;5094702;28;20281;-90
2023/03/22 02:38:09;;;;;;;132.20;123.10;;;9.10;92.40;;;;;;5094821;28;20163;-90
2023/03/22 02:40:42;;;;;;;133.47;124.27;;;9.10;92.40;;;;;;5093748;28;20193;-90
2023/03/22 02:43:33;;;;;;;135.47;125.47;;;9.00;92.40;;;;;;5093802;28;20191;-90
2023/03/22 02:46:27;;;;;;;132.43;122.83;;;9.00;92.40;;;;;;5092585;28;20159;-90
2023/03/22 02:49:05;;;;;;;134.77;125.00;;;8.90;92.50;;;;;;5094307;28;20543;-90
2023/03/22 02:51:57;;;;;;;130.17;121.13;;;8.90;92.50;;;;;;5093548;28;20155;-90
2023/03/22 02:54:30;;;;;;;143.10;133.33;;;8.90;92.50;;;;;;5093398;28;20576;-90
2023/03/22 02:57:04;;;;;;;138.50;128.83;;;8.80;92.60;;;;;;5093425;28;20652;-90
2023/03/22 02:59:33;;;;;;;141.83;131.90;;;8.80;92.60;;;;;;5093438;28;20174;-90
2023/03/22 03:02:01;;;;;;;140.93;131.43;;;8.80;92.70;;;;;;5093149;28;20195;-90
2023/03/22 03:04:35;;;;;;;136.13;126.43;;;8.80;92.70;;;;;;5093250;28;20194;-90
2023/03/22 03:07:08;;;;;;;139.20;129.90;;;8.80;92.80;;;;;;5093271;28;20172;-90
2023/03/22 03:09:35;;;;;;;140.03;130.53;;;8.80;92.80;;;;;;5093406;28;20170;-90
2023/03/22 03:12:01;;;;;;;136.70;127.47;;;8.80;92.80;;;;;;5093280;28;20261;-90
2023/03/22 03:14:29;;;;;;;133.80;124.37;;;8.80;92.80;;;;;;5093772;28;20280;-90
2023/03/22 03:17:10;;;;;;;127.83;119.23;;;8.80;92.70;;;;;;5093143;28;20556;-90
2023/03/22 03:20:07;;;;;;;122.20;113.03;;;8.80;92.80;;;;;;5093027;28;20174;-89
2023/03/22 03:22:47;;;;;;;110.37;102.30;;;9.00;92.50;;;;;;5092697;28;20258;-89
2023/03/22 03:25:29;;;;;;;100.10;92.67;;;9.00;92.20;;;;;;5092885;28;20631;-89
2023/03/22 03:28:08;;;;;;;106.73;99.27;;;9.00;92.20;;;;;;5092947;28;20178;-89
2023/03/22 03:30:40;;;;;;;110.67;102.40;;;9.00;92.10;;;;;;5094073;28;20527;-89
2023/03/22 03:33:12;;;;;;;109.37;101.70;;;9.00;92.10;;;;;;5094359;28;20187;-89
2023/03/22 03:35:45;;;;;;;106.27;98.83;;;9.00;92.00;;;;;;5092786;28;20194;-89
2023/03/22 03:38:19;;;;;;;102.97;95.70;;;9.10;91.90;;;;;;5094004;28;20255;-89
2023/03/22 03:40:51;;;;;;;104.27;96.43;;;9.10;91.90;;;;;;5092729;28;20519;-89
2023/03/22 03:43:18;;;;;;;106.03;98.50;;;9.10;91.90;;;;;;5092533;28;20680;-89
2023/03/22 03:45:44;;;;;;;109.90;102.07;;;9.00;91.90;;;;;;5092696;28;20261;-89
2023/03/22 03:48:18;;;;;;;98.87;91.73;;;9.10;92.00;;;;;;5092510;28;20257;-89
2023/03/22 03:50:45;;;;;;;99.07;92.17;;;9.10;91.90;;;;;;5092506;28;20685;-90
2023/03/22 03:53:11;;;;;;;97.37;90.67;;;9.10;91.80;;;;;;5092442;28;20652;-90
2023/03/22 03:55:36;;;;;;;102.17;94.13;;;9.20;91.70;;;;;;5092417;28;20284;-90
2023/03/22 03:58:02;;;;;;;97.13;90.13;;;9.20;91.60;;;;;;5092124;28;20205;-89
2023/03/22 04:00:27;;;;;;;102.47;94.77;;;9.20;91.50;;;;;;5092428;28;20175;-90
2023/03/22 04:02:53;;;;;;;98.70;91.43;;;9.20;91.40;;;;;;5092130;28;20605;-90
2023/03/22 04:05:19;;;;;;;99.90;92.63;;;9.20;91.40;;;;;;5093461;28;20186;-89
2023/03/22 04:07:44;;;;;;;99.27;92.10;;;9.20;91.50;;;;;;5093024;28;20530;-89
2023/03/22 04:10:10;;;;;;;95.30;88.37;;;9.20;91.40;;;;;;5093369;28;20308;-89
2023/03/22 04:12:35;;;;;;;101.67;94.17;;;9.30;91.20;;;;;;5092609;28;20552;-89
2023/03/22 04:15:01;;;;;;;96.83;89.93;;;9.20;91.20;;;;;;5092045;28;20202;-89
2023/03/22 04:17:28;;;;;;;98.90;91.07;;;9.30;91.10;;;;;;5092103;28;20171;-89
2023/03/22 04:19:55;;;;;;;97.07;89.93;;;9.30;91.10;;;;;;5093342;28;20539;-89
2023/03/22 04:22:21;;;;;;;96.20;89.40;;;9.30;91.10;;;;;;5091869;28;20213;-89
2023/03/22 04:24:48;;;;;;;90.67;84.23;;;9.30;91.20;;;;;;5092001;28;20221;-90
2023/03/22 04:27:19;;;;;;;87.57;80.90;;;9.20;91.10;;;;;;5092040;28;20645;-89
2023/03/22 04:29:47;;;;;;;95.43;88.37;;;9.30;91.00;;;;;;5092001;28;20155;-89
2023/03/22 04:32:25;;;;;;;89.50;82.93;;;9.20;91.00;;;;;;5093265;28;20220;-89
2023/03/22 04:34:51;;;;;;;94.50;87.77;;;9.20;91.10;;;;;;5091994;28;20574;-89
2023/03/22 04:37:18;;;;;;;96.67;89.50;;;9.20;91.10;;;;;;5092148;28;20184;-90
2023/03/22 04:39:44;;;;;;;91.60;84.73;;;9.20;91.10;;;;;;5092272;28;20186;-89
2023/03/22 04:42:10;;;;;;;88.47;82.13;;;9.20;91.10;;;;;;5092087;28;20255;-89
2023/03/22 04:44:36;;;;;;;88.83;82.13;;;9.20;91.00;;;;;;5092451;28;20240;-89
2023/03/22 04:47:02;;;;;;;90.10;83.27;;;9.20;91.00;;;;;;5091905;28;20524;-89
2023/03/22 04:49:27;;;;;;;87.63;81.47;;;9.20;91.00;;;;;;5091984;28;20170;-89
2023/03/22 04:51:54;;;;;;;90.33;83.20;;;9.10;91.10;;;;;;5091963;28;20214;-90
2023/03/22 04:54:20;;;;;;;88.63;82.60;;;9.20;91.00;;;;;;5091787;28;20703;-88
2023/03/22 04:56:46;;;;;;;87.10;80.60;;;9.10;91.10;;;;;;5093040;28;20166;-89
2023/03/22 04:59:12;;;;;;;84.60;78.57;;;9.20;91.20;;;;;;5091779;28;20656;-89
2023/03/22 05:01:39;;;;;;;85.90;79.17;;;9.20;91.00;;;;;;5091620;28;20224;-89
2023/03/22 05:04:05;;;;;;;88.03;81.53;;;9.20;91.00;;;;;;5092383;28;20201;-89
2023/03/22 05:06:32;;;;;;;83.00;76.77;;;9.20;91.10;;;;;;5091699;28;20175;-89
2023/03/22 05:08:58;;;;;;;76.80;71.23;;;9.20;90.90;;;;;;5093162;28;20175;-89
2023/03/22 05:11:26;;;;;;;81.83;75.60;;;9.20;90.90;;;;;;5096804;28;20166;-90
2023/03/22 05:13:53;;;;;;;80.47;74.13;;;9.30;90.80;;;;;;5096571;28;20178;-89
2023/03/22 05:16:19;;;;;;;79.90;73.57;;;9.30;90.70;;;;;;5095496;28;20261;-89
2023/03/22 05:18:44;;;;;;;76.40;70.80;;;9.30;90.70;;;;;;5095410;28;20198;-89
2023/03/22 05:21:15;;;;;;;78.97;72.60;;;9.30;90.60;;;;;;5095417;28;20174;-89
2023/03/22 05:23:42;;;;;;;73.73;68.60;;;9.30;90.60;;;;;;5095246;28;20171;-89
2023/03/22 05:26:09;;;;;;;76.57;70.87;;;9.30;90.50;;;;;;5095207;28;20174;-89
2023/03/22 05:28:35;;;;;;;78.20;72.33;;;9.30;90.50;;;;;;5095267;28;20167;-89
2023/03/22 05:31:00;;;;;;;77.13;71.73;;;9.40;90.50;;;;;;5095950;28;20175;-89
2023/03/22 05:33:26;;;;;;;76.30;70.87;;;9.40;90.40;;;;;;5096297;28;20190;-89
2023/03/22 05:35:52;;;;;;;75.10;69.77;;;9.40;90.30;;;;;;5095033;28;20182;-89
2023/03/22 05:38:18;;;;;;;74.10;68.70;;;9.30;90.40;;;;;;5094971;28;20183;-89
2023/03/22 05:40:44;;;;;;;75.93;70.30;;;9.30;90.40;;;;;;5094969;28;20182;-89
2023/03/22 05:43:10;;;;;;;78.97;72.87;;;9.30;90.40;;;;;;5094961;28;20256;-89
2023/03/22 05:45:36;;;;;;;80.07;73.47;;;9.30;90.50;;;;;;5096348;28;20607;-89
2023/03/22 05:48:02;;;;;;;75.40;69.57;;;9.40;90.50;;;;;;5094895;28;20175;-90
2023/03/22 05:50:27;;;;;;;74.90;69.50;;;9.30;90.40;;;;;;5094699;28;20217;-89
2023/03/22 05:52:53;;;;;;;73.43;67.77;;;9.30;90.40;;;;;;5094668;28;20206;-89
2023/03/22 05:55:19;;;;;;;74.70;69.40;;;9.40;90.20;;;;;;5094645;28;20206;-89
2023/03/22 05:57:46;;;;;;;72.10;66.70;;;9.40;90.20;;;;;;5094737;28;20199;-89
2023/03/22 06:00:14;;;;;;;72.93;67.60;;;9.40;90.20;;;;;;5094613;28;20266;-89
2023/03/22 06:02:41;;;;;;;76.00;69.83;;;9.30;90.30;;;;;;5094526;28;20214;-89
2023/03/22 06:05:09;;;;;;;72.20;66.47;;;9.40;90.20;;;;;;5095694;28;20186;-89
2023/03/22 06:07:35;;;;;;;63.67;59.43;;;9.50;90.10;;;;;;5094477;28;20178;-90
2023/03/22 06:10:01;;;;;;;70.40;64.57;;;9.50;89.90;;;;;;5094599;28;20171;-89
2023/03/22 06:12:26;;;;;;;66.13;61.20;;;9.50;89.90;;;;;;5094301;28;20174;-88
2023/03/22 06:14:52;;;;;;;63.50;59.03;;;9.50;89.90;;;;;;5094243;28;20205;-89
2023/03/22 06:17:18;;;;;;;61.37;57.03;;;9.70;89.60;;;;;;5095551;28;20193;-89
2023/03/22 06:19:44;;;;;;;61.23;56.87;;;9.70;89.50;;;;;;5094070;28;20181;-89
2023/03/22 06:22:10;;;;;;;58.67;54.43;;;9.80;89.40;;;;;;5094408;28;20214;-89
2023/03/22 06:24:36;;;;;;;56.90;52.70;;;9.80;89.20;;;;;;5094285;28;20197;-89
2023/03/22 06:27:01;;;;;;;55.23;51.20;;;9.90;89.00;;;;;;5094099;28;20670;-90
2023/03/22 06:29:27;;;;;;;57.03;52.57;;;9.90;89.00;;;;;;5093909;28;20174;-90
2023/03/22 06:31:52;;;;;;;55.93;51.07;;;9.90;88.80;;;;;;5094031;28;20279;-90
2023/03/22 06:34:18;;;;;;;55.63;51.27;;;10.00;88.60;;;;;;5093897;28;20199;-92
2023/03/22 06:36:43;;;;;;;54.27;49.63;;;10.00;88.80;;;;;;5094004;28;20186;-90
2023/03/22 06:39:09;;;;;;;53.47;49.70;;;10.00;88.50;;;;;;5094079;28;20178;-90
2023/03/22 06:41:34;;;;;;;54.43;50.40;;;10.00;88.50;;;;;;5094982;28;20174;-90
2023/03/22 06:44:01;;;;;;;53.40;49.20;;;10.00;88.40;;;;;;5093607;28;20191;-89
2023/03/22 06:46:27;;;;;;;49.97;46.43;;;10.00;88.40;;;;;;5093703;28;20327;-90
2023/03/22 06:48:52;;;;;;;51.67;48.03;;;10.00;88.30;;;;;;5094481;28;20614;-87
2023/03/22 06:51:18;;;;;;;54.40;50.40;;;10.00;88.40;;;;;;5095168;28;20583;-88
2023/03/22 06:53:44;;;;;;;48.33;44.70;;;10.00;88.30;;;;;;5093539;28;20621;-87
2023/03/22 06:56:10;;;;;;;50.20;46.57;;;10.10;87.80;;;;;;5094702;28;20174;-88
2023/03/22 06:58:35;;;;;;;50.20;45.93;;;10.10;88.00;;;;;;5094674;28;20170;-88
2023/03/22 07:01:01;;;;;;;48.77;44.80;;;10.10;88.00;;;;;;5093483;28;20201;-88
2023/03/22 07:03:26;;;;;;;49.57;45.87;;;10.20;87.70;;;;;;5093349;28;20695;-89
2023/03/22 07:05:52;;;;;;;49.07;45.17;;;10.10;87.70;;;;;;5093415;28;20235;-90
2023/03/22 07:08:17;;;;;;;49.73;45.83;;;10.20;87.80;;;;;;5094761;28;20632;-89
2023/03/22 07:10:49;;;;;;;48.47;44.47;;;10.20;87.60;;;;;;5094459;28;20182;-89
2023/03/22 07:13:14;;;;;;;48.87;44.57;;;10.20;87.50;;;;;;5094497;28;20167;-89
2023/03/22 07:15:40;;;;;;;48.20;44.60;;;10.20;87.40;;;;;;5093109;28;20784;-89
2023/03/22 07:18:07;;;;;;;49.23;45.47;;;10.20;87.40;;;;;;5094647;28;20181;-89
2023/03/22 07:20:35;;;;;;;50.37;46.67;;;10.20;87.50;;;;;;5093274;28;20181;-89
2023/03/22 07:23:01;;;;;;;48.83;44.83;;;10.20;87.60;;;;;;5094107;28;20209;-88
2023/03/22 07:25:26;;;;;;;47.97;44.37;;;10.20;87.40;;;;;;5094153;28;20613;-89
2023/03/22 07:27:52;;;;;;;49.67;45.77;;;10.30;87.30;;;;;;5094644;28;20537;-89
2023/03/22 07:30:18;;;;;;;47.90;44.23;;;10.30;87.30;;;;;;5093175;28;20667;-89
2023/03/22 07:32:43;;;;;;;48.17;44.27;;;10.30;87.50;;;;;;5093557;28;20196;-89
2023/03/22 07:35:09;;;;;;;47.83;43.63;;;10.40;87.40;;;;;;5092741;28;20194;-89
2023/03/22 07:37:35;;;;;;;49.83;45.60;;;10.40;87.10;;;;;;5094087;28;20249;-90
2023/03/22 07:40:00;;;;;;;49.07;45.43;;;10.40;87.20;;;;;;5092774;28;20269;-90
2023/03/22 07:42:26;;;;;;;50.20;45.73;;;10.40;87.30;;;;;;5092676;28;20691;-89
2023/03/22 07:44:51;;;;;;;50.20;46.43;;;10.40;87.30;;;;;;5092926;28;20274;-90
2023/03/22 07:47:17;;;;;;;49.03;45.33;;;10.40;87.40;;;;;;5093818;28;20163;-91
2023/03/22 07:49:43;;;;;;;48.00;44.23;;;10.40;87.30;;;;;;5092865;28;20170;-88
2023/03/22 07:52:08;;;;;;;54.07;49.93;;;10.50;87.30;;;;;;5092577;28;20185;-89
2023/03/22 07:54:34;;;;;;;50.93;46.73;;;10.50;87.70;;;;;;5093705;28;20247;-88
2023/03/22 07:57:00;;;;;;;52.30;48.13;;;10.50;87.60;;;;;;5092517;28;20178;-88
2023/03/22 07:59:25;;;;;;;50.57;46.37;;;10.50;87.80;;;;;;5092758;28;20183;-89
2023/03/22 08:01:51;;;;;;;50.07;46.30;;;10.60;87.70;;;;;;5092262;28;20198;-88
2023/03/22 08:04:18;;;;;;;47.00;43.40;;;10.70;87.50;;;;;;5092183;28;20257;-88
2023/03/22 08:06:45;;;;;;;51.03;46.83;;;10.70;87.40;;;;;;5093653;28;20182;-88
2023/03/22 08:09:11;;;;;;;49.40;45.67;;;10.70;87.40;;;;;;5093449;28;20189;-87
2023/03/22 08:11:36;;;;;;;48.07;44.17;;;10.80;87.50;;;;;;5092162;28;20170;-88
2023/03/22 08:14:02;;;;;;;47.67;43.47;;;10.80;87.30;;;;;;5093533;28;20195;-88
2023/03/22 08:16:27;;;;;;;45.60;42.10;;;10.90;87.10;;;;;;5092139;28;20235;-88
2023/03/22 08:18:53;;;;;;;47.63;44.03;;;10.80;87.20;;;;;;5092185;28;20171;-88
2023/03/22 08:21:18;;;;;;;50.33;46.63;;;10.90;87.10;;;;;;5091929;28;20182;-88
2023/03/22 08:23:44;;;;;;;47.83;44.10;;;11.00;87.60;;;;;;5093383;28;20190;-87
2023/03/22 08:26:10;;;;;;;43.67;40.43;;;11.20;87.40;;;;;;5093452;28;20516;-88
2023/03/22 08:28:36;;;;;;;45.03;41.13;;;11.40;87.00;;;;;;5092100;28;20201;-87
2023/03/22 08:31:09;;;;;;;45.93;42.13;;;11.60;86.50;;;;;;5092111;28;20198;-87
2023/03/22 08:33:35;;;;;;;46.07;42.40;;;11.70;86.10;;;;;;5091978;28;20263;-87
2023/03/22 08:36:10;;;;;;;46.17;42.67;;;11.70;86.40;;;;;;5093605;28;20198;-87
2023/03/22 08:38:35;;;;;;;44.67;41.47;;;11.80;85.80;;;;;;5092036;28;20189;-88
2023/03/22 08:41:02;;;;;;;44.23;40.97;;;11.80;86.10;;;;;;5092078;28;20178;-88
2023/03/22 08:43:28;;;;;;;42.53;38.67;;;11.80;85.50;;;;;;5092784;28;20229;-86
2023/03/22 08:45:53;;;;;;;41.93;38.63;;;11.80;84.80;;;;;;5096090;28;20171;-88
2023/03/22 08:48:19;;;;;;;42.27;39.20;;;11.80;85.50;;;;;;5095975;28;20177;-88
2023/03/22 08:50:45;;;;;;;44.37;40.97;;;11.80;84.90;;;;;;5096088;28;20519;-88
2023/03/22 08:53:12;;;;;;;37.37;34.50;;;11.80;85.30;;;;;;5095887;28;20217;-88
2023/03/22 08:55:43;;;;;;;37.50;34.53;;;12.00;84.30;;;;;;5095905;28;20198;-87
2023/03/22 08:58:10;;;;;;;37.53;34.73;;;12.20;84.80;;;;;;5097505;28;20163;-87
2023/03/22 09:00:37;;;;;;;36.30;33.57;;;12.20;84.70;;;;;;5095668;28;20185;-89
2023/03/22 09:03:03;;;;;;;38.00;34.83;;;12.30;84.70;;;;;;5095620;28;20582;-87
2023/03/22 09:05:29;;;;;;;38.77;35.53;;;12.30;85.30;;;;;;5096826;28;20243;-88
2023/03/22 09:07:55;;;;;;;36.33;33.07;;;12.30;84.80;;;;;;5095703;28;20687;-87
2023/03/22 09:10:21;;;;;;;37.10;34.10;;;12.20;83.70;;;;;;5097275;28;20177;-87
2023/03/22 09:12:46;;;;;;;33.37;30.97;;;12.30;83.80;;;;;;5096645;28;20182;-87
2023/03/22 09:15:12;;;;;;;32.67;30.23;;;12.30;84.00;;;;;;5095429;28;20690;-87
2023/03/22 09:17:38;;;;;;;33.63;30.93;;;12.40;83.80;;;;;;5095419;28;20170;-86
2023/03/22 09:20:04;;;;;;;33.93;31.10;;;12.50;84.10;;;;;;5095315;28;20269;-86
2023/03/22 09:22:30;;;;;;;31.73;29.33;;;12.50;83.30;;;;;;5094908;28;20240;-87
2023/03/22 09:24:56;;;;;;;34.20;31.17;;;12.50;83.50;;;;;;5096550;28;20186;-86
2023/03/22 09:27:21;;;;;;;33.37;30.77;;;12.40;83.60;;;;;;5096851;28;20232;-86
2023/03/22 09:29:49;;;;;;;33.47;30.23;;;12.30;83.10;;;;;;5095190;28;20167;-86
2023/03/22 09:32:15;;;;;;;33.37;30.80;;;12.30;83.20;;;;;;5095340;28;20174;-86
2023/03/22 09:34:40;;;;;;;29.20;26.67;;;12.30;83.60;;;;;;5096241;28;20194;-86
2023/03/22 09:37:06;;;;;;;29.50;26.37;;;12.30;83.30;;;;;;5095062;28;20174;-87
2023/03/22 09:39:32;;;;;;;30.90;28.27;;;12.30;82.30;;;;;;5095033;28;20179;-87
2023/03/22 09:42:02;;;;;;;29.30;26.93;;;12.40;82.30;;;;;;5096003;28;20196;-87
2023/03/22 09:44:40;;;;;;;29.97;27.53;;;12.50;82.50;;;;;;5095634;28;20187;-87
2023/03/22 09:47:12;;;;;;;27.47;25.20;;;12.60;82.50;;;;;;5096402;28;20155;-87
2023/03/22 09:49:41;;;;;;;30.97;27.73;;;12.60;81.60;;;;;;5096155;28;20159;-87
2023/03/22 09:52:13;;;;;;;27.77;25.50;;;12.60;82.00;;;;;;5094666;28;20175;-87
2023/03/22 09:54:41;;;;;;;26.97;24.47;;;12.50;81.40;;;;;;5094145;28;20566;-87
2023/03/22 09:57:31;;;;;;;26.80;24.50;;;12.50;81.30;;;;;;5096136;28;20171;-86
2023/03/22 10:00:13;;;;;;;24.80;23.13;;;12.50;81.50;;;;;;5094561;28;20709;-86
2023/03/22 10:02:48;;;;;;;28.77;26.00;;;12.60;81.10;;;;;;5095666;28;20179;-86
2023/03/22 10:05:48;;;;;;;27.93;25.33;;;12.60;80.70;;;;;;5094458;28;20194;-87
2023/03/22 10:08:36;;;;;;;27.87;25.67;;;12.70;80.60;;;;;;5094974;28;20166;-88
2023/03/22 10:11:08;;;;;;;27.23;25.00;;;12.60;80.80;;;;;;5094391;28;20186;-87
2023/03/22 10:13:53;;;;;;;24.50;22.13;;;12.70;81.20;;;;;;5094196;28;20249;-86
2023/03/22 10:16:27;;;;;;;27.03;24.63;;;12.70;81.10;;;;;;5094298;28;20551;-86
2023/03/22 10:19:01;;;;;;;25.10;23.07;;;12.70;81.00;;;;;;5095516;28;20213;-87
2023/03/22 10:21:28;;;;;;;26.90;24.33;;;12.70;80.10;;;;;;5093918;28;21018;-87
2023/03/22 10:24:02;;;;;;;25.97;23.53;;;12.80;80.90;;;;;;5095280;28;20198;-87
2023/03/22 10:26:40;;;;;;;26.00;23.83;;;12.80;80.50;;;;;;5094120;28;20178;-86
2023/03/22 10:29:33;;;;;;;25.37;23.07;;;12.80;79.90;;;;;;5095333;28;20213;-86
2023/03/22 10:32:17;;;;;;;24.47;22.43;;;12.80;80.70;;;;;;5093978;28;20611;-86
2023/03/22 10:34:43;;;;;;;23.93;21.97;;;12.80;80.30;;;;;;5094191;28;20661;-86
2023/03/22 10:37:31;;;;;;;24.23;22.13;;;12.90;79.50;;;;;;5093853;28;20648;-86
2023/03/22 10:40:01;;;;;;;24.57;22.73;;;12.80;79.70;;;;;;5093922;28;20166;-87
2023/03/22 10:42:29;;;;;;;23.50;21.43;;;12.70;78.80;;;;;;5093759;28;20275;-86
2023/03/22 10:45:22;;;;;;;22.77;21.07;;;12.70;79.20;;;;;;5093563;28;20194;-87
2023/03/22 10:48:03;;;;;;;23.17;21.17;;;12.70;79.10;;;;;;5093909;28;20274;-86
2023/03/22 10:50:35;;;;;;;24.30;21.90;;;12.80;78.70;;;;;;5094871;28;20165;-87
2023/03/22 10:53:15;;;;;;;23.83;21.77;;;12.90;78.80;;;;;;5094808;28;20591;-89
2023/03/22 10:55:42;;;;;;;23.93;21.73;;;13.10;78.70;;;;;;5093555;28;20198;-87
2023/03/22 10:58:12;;;;;;;24.00;22.07;;;13.20;78.80;;;;;;5093653;28;20179;-87
2023/03/22 11:00:44;;;;;;;23.80;21.90;;;13.20;79.30;;;;;;5093479;28;20214;-87
2023/03/22 11:03:29;;;;;;;22.87;21.03;;;13.10;78.30;;;;;;5093465;28;20198;-88
2023/03/22 11:06:16;;;;;;;25.30;23.07;;;13.10;78.40;;;;;;5092661;28;20162;-87
2023/03/22 11:08:56;;;;;;;22.63;20.63;;;13.00;78.90;;;;;;5093365;28;20174;-87
2023/03/22 11:11:28;;;;;;;24.53;22.43;;;12.90;77.20;;;;;;5094565;28;20219;-87
2023/03/22 11:14:13;;;;;;;22.27;20.57;;;12.80;77.50;;;;;;5093190;28;20195;-87
2023/03/22 11:16:50;;;;;;;23.10;21.20;;;12.80;76.50;;;;;;5094666;28;20256;-87
2023/03/22 11:19:37;;;;;;;22.70;21.00;;;12.80;77.00;;;;;;5094713;28;20158;-87
2023/03/22 11:22:35;;;;;;;23.23;21.43;;;12.80;76.70;;;;;;5093474;28;20737;-87
2023/03/22 11:25:02;;;;;;;22.73;20.73;;;12.80;75.80;;;;;;5094143;28;20197;-87
2023/03/22 11:27:30;;;;;;;21.87;19.97;;;12.80;76.70;;;;;;5092965;28;20261;-87
2023/03/22 11:30:22;;;;;;;21.97;20.27;;;12.80;76.40;;;;;;5094129;28;20747;-87
2023/03/22 11:32:48;;;;;;;21.07;19.47;;;12.80;77.20;;;;;;5088650;28;20186;-87
2023/03/22 11:35:25;;;;;;;25.50;20.90;;;12.80;77.10;;;;;;5094021;28;20251;-87
2023/03/22 11:37:53;;;;;;;21.07;19.43;;;12.80;76.20;;;;;;5092761;28;20167;-87
2023/03/22 11:40:50;;;;;;;22.30;20.57;;;12.80;77.50;;;;;;5092929;28;20218;-87
2023/03/22 11:43:21;;;;;;;22.17;19.93;;;12.90;76.20;;;;;;5093970;28;20232;-88
2023/03/22 11:45:50;;;;;;;20.83;19.07;;;12.80;76.70;;;;;;5092796;28;20190;-88
2023/03/22 11:48:20;;;;;;;19.97;18.27;;;12.90;76.60;;;;;;5092866;28;20224;-88
2023/03/22 11:50:46;;;;;;;21.37;19.43;;;12.80;77.00;;;;;;5092717;28;20178;-88
2023/03/22 11:53:23;;;;;;;21.00;19.27;;;12.80;76.30;;;;;;5092768;28;20188;-89
2023/03/22 11:55:52;;;;;;;21.93;19.73;;;12.80;76.50;;;;;;5093943;28;20684;-88
2023/03/22 11:58:41;;;;;;;21.40;19.40;;;12.80;76.70;;;;;;5092501;28;20217;-88
2023/03/22 12:01:14;;;;;;;21.77;19.63;;;12.80;76.70;;;;;;5075888;28;20182;-88
2023/03/22 12:03:42;;;;;;;20.10;18.60;;;12.80;75.50;;;;;;5093857;28;20604;-89
2023/03/22 12:06:20;;;;;;;20.10;18.50;;;12.80;75.60;;;;;;5092367;28;20542;-88
2023/03/22 12:08:51;;;;;;;18.37;17.00;;;12.80;76.20;;;;;;5092222;28;20170;-88
2023/03/22 12:11:25;;;;;;;19.27;17.77;;;12.80;75.30;;;;;;5093780;28;20158;-87
2023/03/22 12:14:01;;;;;;;19.30;17.20;;;12.80;73.90;;;;;;5092216;28;20343;-88
2023/03/22 12:16:33;;;;;;;18.77;17.00;;;12.80;75.00;;;;;;5094038;28;20151;-88
2023/03/22 12:19:37;;;;;;;18.40;16.73;;;12.80;75.60;;;;;;5092161;28;20315;-88
2023/03/22 12:22:11;;;;;;;17.60;16.30;;;12.70;76.40;;;;;;5093139;28;20279;-88
2023/03/22 12:24:37;;;;;;;18.57;16.90;;;12.70;75.80;;;;;;5092081;28;20781;-88
2023/03/22 12:27:20;;;;;;;18.93;17.53;;;12.80;74.60;;;;;;5092112;28;20190;-88
2023/03/22 12:29:53;;;;;;;18.30;16.80;;;12.80;74.40;;;;;;5093289;28;20198;-88
2023/03/22 12:32:29;;;;;;;16.57;15.37;;;12.70;74.40;;;;;;5093637;28;20163;-87
2023/03/22 12:34:55;;;;;;;16.87;15.60;;;12.60;76.70;;;;;;5092037;28;20237;-88
2023/03/22 12:37:28;;;;;;;17.03;15.47;;;12.40;77.50;;;;;;5093180;28;20171;-87
2023/03/22 12:40:18;;;;;;;15.10;13.90;;;12.30;78.40;;;;;;5092122;28;20549;-88
2023/03/22 12:42:55;;;;;;;15.27;13.67;;;12.20;79.10;;;;;;5091932;28;20199;-88